sensor_id;sensor_type;location;lat;lon;timestamp;temperature;humidity
8565;DHT22;4320;51.498;6.556;2023-05-29T00:00:07;16.80;1.00
8565;DHT22;4320;51.498;6.556;2023-05-29T00:02:34;16.70;1.00
8565;DHT22;4320;51.498;6.556;2023-05-29T00:05:00;16.60;1.00
8565;DHT22;4320;51.498;6.556;2023-05-29T00:07:29;16.60;1.00
8565;DHT22;4320;51.498;6.556;2023-05-29T00:09:55;16.50;1.00
8565;DHT22;4320;51.498;6.556;2023-05-29T00:12:20;16.50;1.00
8565;DHT22;4320;51.498;6.556;2023-05-29T00:14:48;16.50;1.00
8565;DHT22;4320;51.498;6.556;2023-05-29T00:17:14;16.20;1.00
8565;DHT22;4320;51.498;6.556;2023-05-29T00:19:41;16.20;1.00
8565;DHT22;4320;51.498;6.556;2023-05-29T00:22:06;16.20;1.00
8565;DHT22;4320;51.498;6.556;2023-05-29T00:24:32;16.20;1.00
8565;DHT22;4320;51.498;6.556;2023-05-29T00:26:58;16.20;1.00
8565;DHT22;4320;51.498;6.556;2023-05-29T00:29:23;16.20;1.00
8565;DHT22;4320;51.498;6.556;2023-05-29T00:31:49;16.10;1.00
8565;DHT22;4320;51.498;6.556;2023-05-29T00:34:15;16.20;1.00
8565;DHT22;4320;51.498;6.556;2023-05-29T00:36:40;16.20;1.00
8565;DHT22;4320;51.498;6.556;2023-05-29T00:39:06;16.10;1.00
8565;DHT22;4320;51.498;6.556;2023-05-29T00:41:31;16.00;1.00
8565;DHT22;4320;51.498;6.556;2023-05-29T00:43:57;15.80;1.00
8565;DHT22;4320;51.498;6.556;2023-05-29T00:46:23;15.80;1.00
8565;DHT22;4320;51.498;6.556;2023-05-29T00:48:48;15.90;1.00
8565;DHT22;4320;51.498;6.556;2023-05-29T00:51:15;15.90;1.00
8565;DHT22;4320;51.498;6.556;2023-05-29T00:53:42;15.90;1.00
8565;DHT22;4320;51.498;6.556;2023-05-29T00:56:09;15.70;1.00
8565;DHT22;4320;51.498;6.556;2023-05-29T00:58:35;15.50;1.00
8565;DHT22;4320;51.498;6.556;2023-05-29T01:01:02;15.50;1.00
8565;DHT22;4320;51.498;6.556;2023-05-29T01:03:28;15.40;1.00
8565;DHT22;4320;51.498;6.556;2023-05-29T01:05:54;15.50;1.00
8565;DHT22;4320;51.498;6.556;2023-05-29T01:08:20;15.40;1.00
8565;DHT22;4320;51.498;6.556;2023-05-29T01:10:46;15.40;1.00
8565;DHT22;4320;51.498;6.556;2023-05-29T01:13:22;15.30;1.00
8565;DHT22;4320;51.498;6.556;2023-05-29T01:16:08;15.10;1.00
8565;DHT22;4320;51.498;6.556;2023-05-29T01:21:30;15.10;1.00
8565;DHT22;4320;51.498;6.556;2023-05-29T01:24:19;15.10;1.00
8565;DHT22;4320;51.498;6.556;2023-05-29T01:27:09;14.90;1.00
8565;DHT22;4320;51.498;6.556;2023-05-29T01:29:39;14.90;1.00
8565;DHT22;4320;51.498;6.556;2023-05-29T01:32:06;14.90;1.00
8565;DHT22;4320;51.498;6.556;2023-05-29T01:34:32;14.80;1.00
8565;DHT22;4320;51.498;6.556;2023-05-29T01:36:57;14.80;1.00
8565;DHT22;4320;51.498;6.556;2023-05-29T01:39:23;14.80;1.00
8565;DHT22;4320;51.498;6.556;2023-05-29T01:41:50;14.50;1.00
8565;DHT22;4320;51.498;6.556;2023-05-29T01:44:17;14.40;1.00
8565;DHT22;4320;51.498;6.556;2023-05-29T01:46:43;14.40;1.00
8565;DHT22;4320;51.498;6.556;2023-05-29T01:49:12;14.40;1.00
8565;DHT22;4320;51.498;6.556;2023-05-29T01:51:40;14.30;1.00
8565;DHT22;4320;51.498;6.556;2023-05-29T01:54:06;14.20;1.00
8565;DHT22;4320;51.498;6.556;2023-05-29T01:56:33;14.20;1.00
8565;DHT22;4320;51.498;6.556;2023-05-29T01:59:00;14.30;1.00
8565;DHT22;4320;51.498;6.556;2023-05-29T02:01:27;14.20;1.00
8565;DHT22;4320;51.498;6.556;2023-05-29T02:03:52;14.10;1.00
8565;DHT22;4320;51.498;6.556;2023-05-29T02:06:18;14.10;1.00
8565;DHT22;4320;51.498;6.556;2023-05-29T02:08:44;14.00;1.00
8565;DHT22;4320;51.498;6.556;2023-05-29T02:11:10;13.90;1.00
8565;DHT22;4320;51.498;6.556;2023-05-29T02:13:36;13.90;1.00
8565;DHT22;4320;51.498;6.556;2023-05-29T02:16:01;13.90;1.00
8565;DHT22;4320;51.498;6.556;2023-05-29T02:18:27;13.90;1.00
8565;DHT22;4320;51.498;6.556;2023-05-29T02:20:52;13.90;1.00
8565;DHT22;4320;51.498;6.556;2023-05-29T02:23:18;14.00;1.00
8565;DHT22;4320;51.498;6.556;2023-05-29T02:25:45;14.10;1.00
8565;DHT22;4320;51.498;6.556;2023-05-29T02:28:11;14.10;1.00
8565;DHT22;4320;51.498;6.556;2023-05-29T02:30:36;14.10;1.00
8565;DHT22;4320;51.498;6.556;2023-05-29T02:33:02;14.00;1.00
8565;DHT22;4320;51.498;6.556;2023-05-29T02:35:28;14.00;1.00
8565;DHT22;4320;51.498;6.556;2023-05-29T02:37:53;14.00;1.00
8565;DHT22;4320;51.498;6.556;2023-05-29T02:40:19;14.00;1.00
8565;DHT22;4320;51.498;6.556;2023-05-29T02:42:45;14.00;1.00
8565;DHT22;4320;51.498;6.556;2023-05-29T02:45:11;13.80;1.00
8565;DHT22;4320;51.498;6.556;2023-05-29T02:47:37;13.70;1.00
8565;DHT22;4320;51.498;6.556;2023-05-29T02:50:03;13.70;1.00
8565;DHT22;4320;51.498;6.556;2023-05-29T02:52:29;13.70;1.00
8565;DHT22;4320;51.498;6.556;2023-05-29T02:54:58;13.80;1.00
8565;DHT22;4320;51.498;6.556;2023-05-29T02:57:24;13.60;1.00
8565;DHT22;4320;51.498;6.556;2023-05-29T02:59:50;13.50;1.00
8565;DHT22;4320;51.498;6.556;2023-05-29T03:02:17;13.50;1.00
8565;DHT22;4320;51.498;6.556;2023-05-29T03:04:44;13.50;1.00
8565;DHT22;4320;51.498;6.556;2023-05-29T03:07:09;13.50;1.00
8565;DHT22;4320;51.498;6.556;2023-05-29T03:09:35;13.40;1.00
8565;DHT22;4320;51.498;6.556;2023-05-29T03:12:01;13.50;1.00
8565;DHT22;4320;51.498;6.556;2023-05-29T03:14:27;13.60;1.00
8565;DHT22;4320;51.498;6.556;2023-05-29T03:16:53;13.50;1.00
8565;DHT22;4320;51.498;6.556;2023-05-29T03:19:19;13.40;1.00
8565;DHT22;4320;51.498;6.556;2023-05-29T03:21:45;13.40;1.00
8565;DHT22;4320;51.498;6.556;2023-05-29T03:24:11;13.40;1.00
8565;DHT22;4320;51.498;6.556;2023-05-29T03:26:39;13.40;1.00
8565;DHT22;4320;51.498;6.556;2023-05-29T03:29:04;13.50;1.00
8565;DHT22;4320;51.498;6.556;2023-05-29T03:31:30;13.50;1.00
8565;DHT22;4320;51.498;6.556;2023-05-29T03:33:56;13.40;1.00
8565;DHT22;4320;51.498;6.556;2023-05-29T03:36:22;13.40;1.00
8565;DHT22;4320;51.498;6.556;2023-05-29T03:38:47;13.20;1.00
8565;DHT22;4320;51.498;6.556;2023-05-29T03:41:13;13.20;1.00
8565;DHT22;4320;51.498;6.556;2023-05-29T03:43:38;13.20;1.00
8565;DHT22;4320;51.498;6.556;2023-05-29T03:46:04;13.10;1.00
8565;DHT22;4320;51.498;6.556;2023-05-29T03:48:30;13.10;1.00
8565;DHT22;4320;51.498;6.556;2023-05-29T03:50:55;13.10;1.00
8565;DHT22;4320;51.498;6.556;2023-05-29T03:53:21;13.10;1.00
8565;DHT22;4320;51.498;6.556;2023-05-29T03:55:47;13.10;1.00
8565;DHT22;4320;51.498;6.556;2023-05-29T03:58:13;13.00;1.00
8565;DHT22;4320;51.498;6.556;2023-05-29T04:00:38;12.90;1.00
8565;DHT22;4320;51.498;6.556;2023-05-29T04:03:04;12.70;1.00
8565;DHT22;4320;51.498;6.556;2023-05-29T04:05:30;12.90;1.00
8565;DHT22;4320;51.498;6.556;2023-05-29T04:07:56;12.80;1.00
8565;DHT22;4320;51.498;6.556;2023-05-29T04:10:22;12.90;1.00
8565;DHT22;4320;51.498;6.556;2023-05-29T04:12:48;12.80;1.00
8565;DHT22;4320;51.498;6.556;2023-05-29T04:15:14;12.80;1.00
8565;DHT22;4320;51.498;6.556;2023-05-29T04:17:40;12.90;1.00
8565;DHT22;4320;51.498;6.556;2023-05-29T04:20:06;12.90;1.00
8565;DHT22;4320;51.498;6.556;2023-05-29T04:22:37;13.00;1.00
8565;DHT22;4320;51.498;6.556;2023-05-29T04:25:04;13.10;1.00
8565;DHT22;4320;51.498;6.556;2023-05-29T04:27:33;13.20;1.00
8565;DHT22;4320;51.498;6.556;2023-05-29T04:30:06;13.40;1.00
8565;DHT22;4320;51.498;6.556;2023-05-29T04:32:32;13.80;1.00
8565;DHT22;4320;51.498;6.556;2023-05-29T04:34:59;13.70;1.00
8565;DHT22;4320;51.498;6.556;2023-05-29T04:37:28;13.90;1.00
8565;DHT22;4320;51.498;6.556;2023-05-29T04:39:55;14.00;1.00
8565;DHT22;4320;51.498;6.556;2023-05-29T04:42:22;13.90;1.00
8565;DHT22;4320;51.498;6.556;2023-05-29T04:44:50;13.90;1.00
8565;DHT22;4320;51.498;6.556;2023-05-29T04:47:18;13.90;1.00
8565;DHT22;4320;51.498;6.556;2023-05-29T04:49:45;14.00;1.00
8565;DHT22;4320;51.498;6.556;2023-05-29T04:52:14;13.80;1.00
8565;DHT22;4320;51.498;6.556;2023-05-29T04:54:40;13.70;1.00
8565;DHT22;4320;51.498;6.556;2023-05-29T04:57:06;13.70;1.00
8565;DHT22;4320;51.498;6.556;2023-05-29T04:59:31;13.80;1.00
8565;DHT22;4320;51.498;6.556;2023-05-29T05:01:57;13.90;1.00
8565;DHT22;4320;51.498;6.556;2023-05-29T05:04:23;13.80;1.00
8565;DHT22;4320;51.498;6.556;2023-05-29T05:06:49;13.70;1.00
8565;DHT22;4320;51.498;6.556;2023-05-29T05:09:15;13.80;1.00
8565;DHT22;4320;51.498;6.556;2023-05-29T05:11:40;13.80;1.00
8565;DHT22;4320;51.498;6.556;2023-05-29T05:14:06;13.80;1.00
8565;DHT22;4320;51.498;6.556;2023-05-29T05:16:32;14.00;1.00
8565;DHT22;4320;51.498;6.556;2023-05-29T05:18:58;14.10;1.00
8565;DHT22;4320;51.498;6.556;2023-05-29T05:21:24;14.30;1.00
8565;DHT22;4320;51.498;6.556;2023-05-29T05:23:49;14.60;1.00
8565;DHT22;4320;51.498;6.556;2023-05-29T05:26:15;14.40;1.00
8565;DHT22;4320;51.498;6.556;2023-05-29T05:28:40;14.30;1.00
8565;DHT22;4320;51.498;6.556;2023-05-29T05:31:06;14.30;1.00
8565;DHT22;4320;51.498;6.556;2023-05-29T05:33:31;14.40;1.00
8565;DHT22;4320;51.498;6.556;2023-05-29T05:35:57;14.50;1.00
8565;DHT22;4320;51.498;6.556;2023-05-29T05:38:23;14.50;1.00
8565;DHT22;4320;51.498;6.556;2023-05-29T05:40:48;14.50;1.00
8565;DHT22;4320;51.498;6.556;2023-05-29T05:43:14;14.60;1.00
8565;DHT22;4320;51.498;6.556;2023-05-29T05:45:39;14.60;1.00
8565;DHT22;4320;51.498;6.556;2023-05-29T05:48:08;14.70;1.00
8565;DHT22;4320;51.498;6.556;2023-05-29T05:50:34;14.80;1.00
8565;DHT22;4320;51.498;6.556;2023-05-29T05:52:59;14.80;1.00
8565;DHT22;4320;51.498;6.556;2023-05-29T05:55:25;14.80;1.00
8565;DHT22;4320;51.498;6.556;2023-05-29T05:57:53;14.80;1.00
8565;DHT22;4320;51.498;6.556;2023-05-29T06:00:19;14.80;1.00
8565;DHT22;4320;51.498;6.556;2023-05-29T06:02:44;15.10;1.00
8565;DHT22;4320;51.498;6.556;2023-05-29T06:05:10;15.00;1.00
8565;DHT22;4320;51.498;6.556;2023-05-29T06:07:37;15.00;1.00
8565;DHT22;4320;51.498;6.556;2023-05-29T06:10:03;15.10;1.00
8565;DHT22;4320;51.498;6.556;2023-05-29T06:12:29;14.90;1.00
8565;DHT22;4320;51.498;6.556;2023-05-29T06:14:55;14.90;1.00
8565;DHT22;4320;51.498;6.556;2023-05-29T06:17:22;14.90;1.00
8565;DHT22;4320;51.498;6.556;2023-05-29T06:19:48;14.70;1.00
8565;DHT22;4320;51.498;6.556;2023-05-29T06:22:14;14.80;1.00
8565;DHT22;4320;51.498;6.556;2023-05-29T06:24:40;14.80;1.00
8565;DHT22;4320;51.498;6.556;2023-05-29T06:27:06;15.10;1.00
8565;DHT22;4320;51.498;6.556;2023-05-29T06:29:32;15.10;1.00
8565;DHT22;4320;51.498;6.556;2023-05-29T06:31:58;15.10;1.00
8565;DHT22;4320;51.498;6.556;2023-05-29T06:34:24;15.20;1.00
8565;DHT22;4320;51.498;6.556;2023-05-29T06:36:49;15.10;1.00
8565;DHT22;4320;51.498;6.556;2023-05-29T06:39:15;15.40;1.00
8565;DHT22;4320;51.498;6.556;2023-05-29T06:41:41;15.60;1.00
8565;DHT22;4320;51.498;6.556;2023-05-29T06:44:07;15.60;1.00
8565;DHT22;4320;51.498;6.556;2023-05-29T06:46:32;15.60;1.00
8565;DHT22;4320;51.498;6.556;2023-05-29T06:48:58;15.70;1.00
8565;DHT22;4320;51.498;6.556;2023-05-29T06:51:24;15.80;1.00
8565;DHT22;4320;51.498;6.556;2023-05-29T06:53:49;16.00;1.00
8565;DHT22;4320;51.498;6.556;2023-05-29T06:56:15;16.20;1.00
8565;DHT22;4320;51.498;6.556;2023-05-29T06:58:40;16.30;1.00
8565;DHT22;4320;51.498;6.556;2023-05-29T07:01:06;16.20;1.00
8565;DHT22;4320;51.498;6.556;2023-05-29T07:03:32;16.30;1.00
8565;DHT22;4320;51.498;6.556;2023-05-29T07:05:57;16.40;1.00
8565;DHT22;4320;51.498;6.556;2023-05-29T07:08:24;16.30;1.00
8565;DHT22;4320;51.498;6.556;2023-05-29T07:10:50;16.30;1.00
8565;DHT22;4320;51.498;6.556;2023-05-29T07:13:16;16.50;1.00
8565;DHT22;4320;51.498;6.556;2023-05-29T07:15:46;16.30;1.00
8565;DHT22;4320;51.498;6.556;2023-05-29T07:18:11;16.30;1.00
8565;DHT22;4320;51.498;6.556;2023-05-29T07:20:37;16.50;1.00
8565;DHT22;4320;51.498;6.556;2023-05-29T07:23:03;16.40;1.00
8565;DHT22;4320;51.498;6.556;2023-05-29T07:25:29;16.70;1.00
8565;DHT22;4320;51.498;6.556;2023-05-29T07:27:56;16.70;1.00
8565;DHT22;4320;51.498;6.556;2023-05-29T07:30:22;16.60;1.00
8565;DHT22;4320;51.498;6.556;2023-05-29T07:32:47;16.70;1.00
8565;DHT22;4320;51.498;6.556;2023-05-29T07:35:13;16.60;1.00
8565;DHT22;4320;51.498;6.556;2023-05-29T07:37:38;16.80;1.00
8565;DHT22;4320;51.498;6.556;2023-05-29T07:40:04;17.10;1.00
8565;DHT22;4320;51.498;6.556;2023-05-29T07:42:33;17.30;1.00
8565;DHT22;4320;51.498;6.556;2023-05-29T07:44:59;17.40;1.00
8565;DHT22;4320;51.498;6.556;2023-05-29T07:47:25;17.20;1.00
8565;DHT22;4320;51.498;6.556;2023-05-29T07:49:51;17.50;1.00
8565;DHT22;4320;51.498;6.556;2023-05-29T07:52:17;17.60;1.00
8565;DHT22;4320;51.498;6.556;2023-05-29T07:54:43;17.90;1.00
8565;DHT22;4320;51.498;6.556;2023-05-29T07:57:09;17.90;1.00
8565;DHT22;4320;51.498;6.556;2023-05-29T07:59:36;18.00;1.00
8565;DHT22;4320;51.498;6.556;2023-05-29T08:02:02;18.10;1.00
8565;DHT22;4320;51.498;6.556;2023-05-29T08:04:29;18.30;1.00
8565;DHT22;4320;51.498;6.556;2023-05-29T08:06:55;18.40;1.00
8565;DHT22;4320;51.498;6.556;2023-05-29T08:09:20;18.20;1.00
8565;DHT22;4320;51.498;6.556;2023-05-29T08:11:46;18.10;1.00
8565;DHT22;4320;51.498;6.556;2023-05-29T08:14:13;18.10;1.00
8565;DHT22;4320;51.498;6.556;2023-05-29T08:16:39;18.10;1.00
8565;DHT22;4320;51.498;6.556;2023-05-29T08:19:05;18.20;1.00
8565;DHT22;4320;51.498;6.556;2023-05-29T08:21:31;18.10;1.00
8565;DHT22;4320;51.498;6.556;2023-05-29T08:24:01;18.00;1.00
8565;DHT22;4320;51.498;6.556;2023-05-29T08:26:27;17.90;1.00
8565;DHT22;4320;51.498;6.556;2023-05-29T08:28:53;18.10;1.00
8565;DHT22;4320;51.498;6.556;2023-05-29T08:31:20;17.80;1.00
8565;DHT22;4320;51.498;6.556;2023-05-29T08:33:45;17.60;1.00
8565;DHT22;4320;51.498;6.556;2023-05-29T08:36:11;17.60;1.00
8565;DHT22;4320;51.498;6.556;2023-05-29T08:38:36;17.90;1.00
8565;DHT22;4320;51.498;6.556;2023-05-29T08:41:02;17.90;1.00
8565;DHT22;4320;51.498;6.556;2023-05-29T08:43:31;18.10;1.00
8565;DHT22;4320;51.498;6.556;2023-05-29T08:46:02;18.10;1.00
8565;DHT22;4320;51.498;6.556;2023-05-29T08:48:29;17.80;1.00
8565;DHT22;4320;51.498;6.556;2023-05-29T08:50:56;17.80;1.00
8565;DHT22;4320;51.498;6.556;2023-05-29T08:53:23;18.10;1.00
8565;DHT22;4320;51.498;6.556;2023-05-29T08:55:50;18.30;1.00
8565;DHT22;4320;51.498;6.556;2023-05-29T08:58:21;18.50;1.00
8565;DHT22;4320;51.498;6.556;2023-05-29T09:00:48;18.70;1.00
8565;DHT22;4320;51.498;6.556;2023-05-29T09:03:14;18.70;1.00
8565;DHT22;4320;51.498;6.556;2023-05-29T09:05:40;18.50;1.00
8565;DHT22;4320;51.498;6.556;2023-05-29T09:08:08;18.50;1.00
8565;DHT22;4320;51.498;6.556;2023-05-29T09:10:34;18.50;1.00
8565;DHT22;4320;51.498;6.556;2023-05-29T09:13:00;18.80;1.00
8565;DHT22;4320;51.498;6.556;2023-05-29T09:15:26;18.70;1.00
8565;DHT22;4320;51.498;6.556;2023-05-29T09:17:52;18.80;1.00
8565;DHT22;4320;51.498;6.556;2023-05-29T09:20:19;18.60;1.00
8565;DHT22;4320;51.498;6.556;2023-05-29T09:25:26;18.90;1.00
8565;DHT22;4320;51.498;6.556;2023-05-29T09:27:55;18.70;1.00
8565;DHT22;4320;51.498;6.556;2023-05-29T09:30:51;18.70;1.00
8565;DHT22;4320;51.498;6.556;2023-05-29T09:33:16;18.70;1.00
8565;DHT22;4320;51.498;6.556;2023-05-29T09:35:47;18.70;1.00
8565;DHT22;4320;51.498;6.556;2023-05-29T09:38:15;18.90;1.00
8565;DHT22;4320;51.498;6.556;2023-05-29T09:40:41;18.80;1.00
8565;DHT22;4320;51.498;6.556;2023-05-29T09:45:40;18.70;1.00
8565;DHT22;4320;51.498;6.556;2023-05-29T09:48:06;18.70;1.00
8565;DHT22;4320;51.498;6.556;2023-05-29T09:50:33;18.80;1.00
8565;DHT22;4320;51.498;6.556;2023-05-29T09:53:00;19.00;1.00
8565;DHT22;4320;51.498;6.556;2023-05-29T09:55:27;19.20;1.00
8565;DHT22;4320;51.498;6.556;2023-05-29T09:57:54;19.00;1.00
8565;DHT22;4320;51.498;6.556;2023-05-29T10:00:20;18.90;1.00
8565;DHT22;4320;51.498;6.556;2023-05-29T10:02:48;19.10;1.00
8565;DHT22;4320;51.498;6.556;2023-05-29T10:05:14;19.40;1.00
8565;DHT22;4320;51.498;6.556;2023-05-29T10:07:44;19.30;1.00
8565;DHT22;4320;51.498;6.556;2023-05-29T10:10:15;19.20;1.00
8565;DHT22;4320;51.498;6.556;2023-05-29T10:12:48;19.20;1.00
8565;DHT22;4320;51.498;6.556;2023-05-29T10:15:15;19.30;1.00
8565;DHT22;4320;51.498;6.556;2023-05-29T10:17:56;19.60;1.00
8565;DHT22;4320;51.498;6.556;2023-05-29T10:20:23;19.60;1.00
8565;DHT22;4320;51.498;6.556;2023-05-29T10:22:51;19.80;1.00
8565;DHT22;4320;51.498;6.556;2023-05-29T10:25:20;19.80;1.00
8565;DHT22;4320;51.498;6.556;2023-05-29T10:27:47;19.80;1.00
8565;DHT22;4320;51.498;6.556;2023-05-29T10:30:37;20.10;1.00
8565;DHT22;4320;51.498;6.556;2023-05-29T10:36:19;20.50;1.00
8565;DHT22;4320;51.498;6.556;2023-05-29T10:38:48;20.70;1.00
8565;DHT22;4320;51.498;6.556;2023-05-29T10:44:02;20.50;1.00
8565;DHT22;4320;51.498;6.556;2023-05-29T10:49:17;20.40;1.00
8565;DHT22;4320;51.498;6.556;2023-05-29T10:51:43;20.30;1.00
8565;DHT22;4320;51.498;6.556;2023-05-29T10:54:09;20.30;1.00
8565;DHT22;4320;51.498;6.556;2023-05-29T10:56:35;19.90;1.00
8565;DHT22;4320;51.498;6.556;2023-05-29T10:59:01;20.10;1.00
8565;DHT22;4320;51.498;6.556;2023-05-29T11:01:28;20.10;1.00
8565;DHT22;4320;51.498;6.556;2023-05-29T11:06:43;20.20;1.00
8565;DHT22;4320;51.498;6.556;2023-05-29T11:09:32;20.30;1.00
8565;DHT22;4320;51.498;6.556;2023-05-29T11:15:06;20.40;1.00
8565;DHT22;4320;51.498;6.556;2023-05-29T11:17:42;20.70;1.00
8565;DHT22;4320;51.498;6.556;2023-05-29T11:20:16;20.80;1.00
8565;DHT22;4320;51.498;6.556;2023-05-29T11:23:00;20.70;1.00
8565;DHT22;4320;51.498;6.556;2023-05-29T11:25:27;20.60;1.00
8565;DHT22;4320;51.498;6.556;2023-05-29T11:27:53;20.60;1.00
8565;DHT22;4320;51.498;6.556;2023-05-29T11:30:20;20.70;1.00
8565;DHT22;4320;51.498;6.556;2023-05-29T11:32:47;21.20;1.00
8565;DHT22;4320;51.498;6.556;2023-05-29T11:35:13;21.30;1.00
8565;DHT22;4320;51.498;6.556;2023-05-29T11:37:41;21.50;1.00
8565;DHT22;4320;51.498;6.556;2023-05-29T11:40:12;21.60;1.00
8565;DHT22;4320;51.498;6.556;2023-05-29T11:42:43;21.50;1.00
8565;DHT22;4320;51.498;6.556;2023-05-29T11:45:19;21.80;1.00
8565;DHT22;4320;51.498;6.556;2023-05-29T11:50:28;22.30;1.00
8565;DHT22;4320;51.498;6.556;2023-05-29T11:53:00;22.20;1.00
8565;DHT22;4320;51.498;6.556;2023-05-29T11:55:27;22.30;1.00
8565;DHT22;4320;51.498;6.556;2023-05-29T11:57:58;22.30;1.00
8565;DHT22;4320;51.498;6.556;2023-05-29T12:00:24;22.10;1.00
8565;DHT22;4320;51.498;6.556;2023-05-29T12:02:51;22.10;1.00
8565;DHT22;4320;51.498;6.556;2023-05-29T12:05:17;22.20;1.00
8565;DHT22;4320;51.498;6.556;2023-05-29T12:07:51;22.00;1.00
8565;DHT22;4320;51.498;6.556;2023-05-29T12:10:17;21.70;1.00
8565;DHT22;4320;51.498;6.556;2023-05-29T12:12:48;21.80;1.00
8565;DHT22;4320;51.498;6.556;2023-05-29T12:15:14;22.10;1.00
8565;DHT22;4320;51.498;6.556;2023-05-29T12:17:40;22.10;1.00
8565;DHT22;4320;51.498;6.556;2023-05-29T12:20:07;22.30;1.00
8565;DHT22;4320;51.498;6.556;2023-05-29T12:22:36;22.60;1.00
8565;DHT22;4320;51.498;6.556;2023-05-29T12:25:10;22.90;1.00
8565;DHT22;4320;51.498;6.556;2023-05-29T12:27:44;23.00;1.00
8565;DHT22;4320;51.498;6.556;2023-05-29T12:32:46;22.60;1.00
8565;DHT22;4320;51.498;6.556;2023-05-29T12:35:19;22.60;1.00
8565;DHT22;4320;51.498;6.556;2023-05-29T12:37:49;22.80;1.00
8565;DHT22;4320;51.498;6.556;2023-05-29T12:40:23;22.80;1.00
8565;DHT22;4320;51.498;6.556;2023-05-29T12:42:53;22.60;1.00
8565;DHT22;4320;51.498;6.556;2023-05-29T12:45:19;22.50;1.00
8565;DHT22;4320;51.498;6.556;2023-05-29T12:48:01;22.30;1.00
8565;DHT22;4320;51.498;6.556;2023-05-29T12:53:00;22.10;1.00
8565;DHT22;4320;51.498;6.556;2023-05-29T12:55:27;22.20;1.00
8565;DHT22;4320;51.498;6.556;2023-05-29T12:57:54;22.50;1.00
8565;DHT22;4320;51.498;6.556;2023-05-29T13:00:20;22.50;1.00
8565;DHT22;4320;51.498;6.556;2023-05-29T13:02:49;22.40;1.00
8565;DHT22;4320;51.498;6.556;2023-05-29T13:05:16;22.20;1.00
8565;DHT22;4320;51.498;6.556;2023-05-29T13:07:42;22.20;1.00
8565;DHT22;4320;51.498;6.556;2023-05-29T13:10:08;22.00;1.00
8565;DHT22;4320;51.498;6.556;2023-05-29T13:12:35;22.00;1.00
8565;DHT22;4320;51.498;6.556;2023-05-29T13:15:01;22.00;1.00
8565;DHT22;4320;51.498;6.556;2023-05-29T13:17:27;21.70;1.00
8565;DHT22;4320;51.498;6.556;2023-05-29T13:19:52;21.70;1.00
8565;DHT22;4320;51.498;6.556;2023-05-29T13:22:18;21.80;1.00
8565;DHT22;4320;51.498;6.556;2023-05-29T13:24:44;21.80;1.00
8565;DHT22;4320;51.498;6.556;2023-05-29T13:27:10;21.70;1.00
8565;DHT22;4320;51.498;6.556;2023-05-29T13:29:39;21.90;1.00
8565;DHT22;4320;51.498;6.556;2023-05-29T13:32:06;22.10;1.00
8565;DHT22;4320;51.498;6.556;2023-05-29T13:34:32;21.90;1.00
8565;DHT22;4320;51.498;6.556;2023-05-29T13:36:58;21.80;1.00
8565;DHT22;4320;51.498;6.556;2023-05-29T13:39:23;21.80;1.00
8565;DHT22;4320;51.498;6.556;2023-05-29T13:41:50;21.80;1.00
8565;DHT22;4320;51.498;6.556;2023-05-29T13:44:16;21.80;1.00
8565;DHT22;4320;51.498;6.556;2023-05-29T13:46:41;21.80;1.00
8565;DHT22;4320;51.498;6.556;2023-05-29T13:49:07;21.70;1.00
8565;DHT22;4320;51.498;6.556;2023-05-29T13:51:33;21.60;1.00
8565;DHT22;4320;51.498;6.556;2023-05-29T13:54:01;21.70;1.00
8565;DHT22;4320;51.498;6.556;2023-05-29T13:56:27;21.70;1.00
8565;DHT22;4320;51.498;6.556;2023-05-29T13:58:53;21.70;1.00
8565;DHT22;4320;51.498;6.556;2023-05-29T14:01:18;21.60;1.00
8565;DHT22;4320;51.498;6.556;2023-05-29T14:03:45;21.60;1.00
8565;DHT22;4320;51.498;6.556;2023-05-29T14:06:10;21.80;1.00
8565;DHT22;4320;51.498;6.556;2023-05-29T14:08:36;21.80;1.00
8565;DHT22;4320;51.498;6.556;2023-05-29T14:11:02;21.70;1.00
8565;DHT22;4320;51.498;6.556;2023-05-29T14:13:28;21.50;1.00
8565;DHT22;4320;51.498;6.556;2023-05-29T14:15:53;21.50;1.00
8565;DHT22;4320;51.498;6.556;2023-05-29T14:18:21;21.50;1.00
8565;DHT22;4320;51.498;6.556;2023-05-29T14:20:47;21.60;1.00
8565;DHT22;4320;51.498;6.556;2023-05-29T14:23:14;21.60;1.00
8565;DHT22;4320;51.498;6.556;2023-05-29T14:25:41;21.50;1.00
8565;DHT22;4320;51.498;6.556;2023-05-29T14:28:07;21.50;1.00
8565;DHT22;4320;51.498;6.556;2023-05-29T14:30:32;21.30;1.00
8565;DHT22;4320;51.498;6.556;2023-05-29T14:32:58;21.20;1.00
8565;DHT22;4320;51.498;6.556;2023-05-29T14:35:25;21.50;1.00
8565;DHT22;4320;51.498;6.556;2023-05-29T14:37:50;21.40;1.00
8565;DHT22;4320;51.498;6.556;2023-05-29T14:40:16;21.50;1.00
8565;DHT22;4320;51.498;6.556;2023-05-29T14:42:41;21.50;1.00
8565;DHT22;4320;51.498;6.556;2023-05-29T14:45:07;21.70;1.00
8565;DHT22;4320;51.498;6.556;2023-05-29T14:47:34;21.60;1.00
8565;DHT22;4320;51.498;6.556;2023-05-29T14:50:00;21.60;1.00
8565;DHT22;4320;51.498;6.556;2023-05-29T14:52:26;21.60;1.00
8565;DHT22;4320;51.498;6.556;2023-05-29T14:54:51;21.50;1.00
8565;DHT22;4320;51.498;6.556;2023-05-29T14:57:17;21.40;1.00
8565;DHT22;4320;51.498;6.556;2023-05-29T14:59:42;21.30;1.00
8565;DHT22;4320;51.498;6.556;2023-05-29T15:02:08;21.30;1.00
8565;DHT22;4320;51.498;6.556;2023-05-29T15:04:35;21.10;1.00
8565;DHT22;4320;51.498;6.556;2023-05-29T15:07:01;21.10;1.00
8565;DHT22;4320;51.498;6.556;2023-05-29T15:09:26;21.10;1.00
8565;DHT22;4320;51.498;6.556;2023-05-29T15:11:52;21.10;1.00
8565;DHT22;4320;51.498;6.556;2023-05-29T15:14:17;21.20;1.00
8565;DHT22;4320;51.498;6.556;2023-05-29T15:16:44;21.20;1.00
8565;DHT22;4320;51.498;6.556;2023-05-29T15:19:10;21.30;1.00
8565;DHT22;4320;51.498;6.556;2023-05-29T15:21:36;21.30;1.00
8565;DHT22;4320;51.498;6.556;2023-05-29T15:24:02;21.20;1.00
8565;DHT22;4320;51.498;6.556;2023-05-29T15:26:27;21.00;1.00
8565;DHT22;4320;51.498;6.556;2023-05-29T15:28:53;21.10;1.00
8565;DHT22;4320;51.498;6.556;2023-05-29T15:31:20;21.10;1.00
8565;DHT22;4320;51.498;6.556;2023-05-29T15:33:48;21.00;1.00
8565;DHT22;4320;51.498;6.556;2023-05-29T15:36:14;21.00;1.00
8565;DHT22;4320;51.498;6.556;2023-05-29T15:38:41;21.10;1.00
8565;DHT22;4320;51.498;6.556;2023-05-29T15:41:07;21.20;1.00
8565;DHT22;4320;51.498;6.556;2023-05-29T15:43:33;21.10;1.00
8565;DHT22;4320;51.498;6.556;2023-05-29T15:45:58;21.10;1.00
8565;DHT22;4320;51.498;6.556;2023-05-29T15:48:24;21.10;1.00
8565;DHT22;4320;51.498;6.556;2023-05-29T15:50:50;21.00;1.00
8565;DHT22;4320;51.498;6.556;2023-05-29T15:53:15;21.20;1.00
8565;DHT22;4320;51.498;6.556;2023-05-29T15:55:41;21.30;1.00
8565;DHT22;4320;51.498;6.556;2023-05-29T15:58:07;21.20;1.00
8565;DHT22;4320;51.498;6.556;2023-05-29T16:00:33;21.10;1.00
8565;DHT22;4320;51.498;6.556;2023-05-29T16:03:00;21.10;1.00
8565;DHT22;4320;51.498;6.556;2023-05-29T16:05:26;21.20;1.00
8565;DHT22;4320;51.498;6.556;2023-05-29T16:07:53;21.10;1.00
8565;DHT22;4320;51.498;6.556;2023-05-29T16:10:19;21.10;1.00
8565;DHT22;4320;51.498;6.556;2023-05-29T16:12:45;21.10;1.00
8565;DHT22;4320;51.498;6.556;2023-05-29T16:15:14;21.20;1.00
8565;DHT22;4320;51.498;6.556;2023-05-29T16:17:43;21.20;1.00
8565;DHT22;4320;51.498;6.556;2023-05-29T16:20:09;21.10;1.00
8565;DHT22;4320;51.498;6.556;2023-05-29T16:22:35;21.30;1.00
8565;DHT22;4320;51.498;6.556;2023-05-29T16:25:02;21.30;1.00
8565;DHT22;4320;51.498;6.556;2023-05-29T16:27:28;21.30;1.00
8565;DHT22;4320;51.498;6.556;2023-05-29T16:29:53;21.30;1.00
8565;DHT22;4320;51.498;6.556;2023-05-29T16:32:19;21.10;1.00
8565;DHT22;4320;51.498;6.556;2023-05-29T16:34:45;21.20;1.00
8565;DHT22;4320;51.498;6.556;2023-05-29T16:37:10;21.10;1.00
8565;DHT22;4320;51.498;6.556;2023-05-29T16:39:37;21.10;1.00
8565;DHT22;4320;51.498;6.556;2023-05-29T16:42:03;21.20;1.00
8565;DHT22;4320;51.498;6.556;2023-05-29T16:44:29;21.30;1.00